createdAt,value
2022-11-24T00:00:59.632Z,0.00
2022-11-24T00:01:59.665Z,0.00
2022-11-24T00:02:59.623Z,0.00
2022-11-24T00:03:59.588Z,0.00
2022-11-24T00:04:59.615Z,0.00
2022-11-24T00:05:59.590Z,0.00
2022-11-24T00:06:59.528Z,0.00
2022-11-24T00:07:59.542Z,0.00
2022-11-24T00:08:59.570Z,0.00
2022-11-24T00:10:00.445Z,0.00
2022-11-24T00:10:59.534Z,0.00
2022-11-24T00:12:00.368Z,0.00
2022-11-24T00:12:59.543Z,0.00
2022-11-24T00:13:59.496Z,0.00
2022-11-24T00:14:59.455Z,0.00
2022-11-24T00:15:59.451Z,0.00
2022-11-24T00:16:59.510Z,0.00
2022-11-24T00:17:59.477Z,0.00
2022-11-24T00:18:59.453Z,0.00
2022-11-24T00:19:59.457Z,0.00
2022-11-24T00:20:59.440Z,0.00
2022-11-24T00:21:59.431Z,0.00
2022-11-24T00:22:59.380Z,0.00
2022-11-24T00:23:59.364Z,0.00
2022-11-24T00:24:59.408Z,0.00
2022-11-24T00:25:59.351Z,0.00
2022-11-24T00:26:59.389Z,0.00
2022-11-24T00:27:59.337Z,0.00
2022-11-24T00:28:59.346Z,0.00
2022-11-24T00:29:59.330Z,0.00
2022-11-24T00:30:59.392Z,0.00
2022-11-24T00:31:59.363Z,0.00
2022-11-24T00:32:59.316Z,0.00
2022-11-24T00:33:59.268Z,0.00
2022-11-24T00:34:59.326Z,0.00
2022-11-24T00:35:59.277Z,0.00
2022-11-24T00:36:59.250Z,0.00
2022-11-24T00:37:59.307Z,0.00
2022-11-24T00:38:59.242Z,0.00
2022-11-24T00:39:59.212Z,0.00
2022-11-24T00:40:59.213Z,0.00
2022-11-24T00:41:59.224Z,0.00
2022-11-24T00:42:59.176Z,0.00
2022-11-24T00:43:59.201Z,0.00
2022-11-24T00:44:59.190Z,0.00
2022-11-24T00:45:59.234Z,0.00
2022-11-24T00:46:59.283Z,0.00
2022-11-24T00:47:59.149Z,0.00
2022-11-24T00:48:59.203Z,0.00
2022-11-24T00:49:59.177Z,0.00
2022-11-24T00:50:59.130Z,0.00
2022-11-24T00:51:59.145Z,0.00
2022-11-24T00:52:59.152Z,0.00
2022-11-24T00:53:59.144Z,0.00
2022-11-24T00:54:59.140Z,0.00
2022-11-24T00:55:59.054Z,0.00
2022-11-24T00:56:59.048Z,0.00
2022-11-24T00:57:59.022Z,0.00
2022-11-24T00:58:59.031Z,0.00
2022-11-24T00:59:59.023Z,0.00
2022-11-24T01:00:59.038Z,0.00
2022-11-24T01:01:59.062Z,0.00
2022-11-24T01:02:59.059Z,0.00
2022-11-24T01:03:59.003Z,0.00
2022-11-24T01:04:59.021Z,0.00
2022-11-24T01:05:58.977Z,0.00
2022-11-24T01:06:58.935Z,0.00
2022-11-24T01:07:58.949Z,0.00
2022-11-24T01:08:58.927Z,0.00
2022-11-24T01:09:58.936Z,0.00
2022-11-24T01:10:58.910Z,0.00
2022-11-24T01:11:58.916Z,0.00
2022-11-24T01:12:58.896Z,0.00
2022-11-24T01:13:58.923Z,0.00
2022-11-24T01:14:58.880Z,0.00
2022-11-24T01:15:58.918Z,0.00
2022-11-24T01:16:58.885Z,0.00
2022-11-24T01:17:58.830Z,0.00
2022-11-24T01:18:58.816Z,0.00
2022-11-24T01:19:58.911Z,0.00
2022-11-24T01:20:58.852Z,0.00
2022-11-24T01:21:58.828Z,0.00
2022-11-24T01:22:58.783Z,0.00
2022-11-24T01:23:58.842Z,0.00
2022-11-24T01:24:58.796Z,0.00
2022-11-24T01:25:58.773Z,0.00
2022-11-24T01:26:58.778Z,0.00
2022-11-24T01:27:58.742Z,0.00
2022-11-24T01:28:58.745Z,0.00
2022-11-24T01:29:58.790Z,0.00
2022-11-24T01:30:58.766Z,0.00
2022-11-24T01:31:58.696Z,0.00
2022-11-24T01:32:58.702Z,0.00
2022-11-24T01:33:58.738Z,0.00
2022-11-24T01:34:58.732Z,0.00
2022-11-24T01:35:58.666Z,0.00
2022-11-24T01:36:58.648Z,0.00
2022-11-24T01:37:58.681Z,0.00
2022-11-24T01:38:58.628Z,0.00
2022-11-24T01:39:58.617Z,0.00
2022-11-24T01:40:58.608Z,0.00
2022-11-24T01:41:58.611Z,0.00
2022-11-24T01:42:58.612Z,0.00
2022-11-24T01:43:58.605Z,0.00
2022-11-24T01:44:58.576Z,0.00
2022-11-24T01:45:58.672Z,0.00
2022-11-24T01:46:58.573Z,0.00
2022-11-24T01:47:58.591Z,0.00
2022-11-24T01:48:58.534Z,0.00
2022-11-24T01:49:58.520Z,0.00
2022-11-24T01:50:58.550Z,0.00
2022-11-24T01:51:58.519Z,0.00
2022-11-24T01:52:58.492Z,0.00
2022-11-24T01:53:58.559Z,0.00
2022-11-24T01:54:58.492Z,0.00
2022-11-24T01:55:58.466Z,0.00
2022-11-24T01:56:58.462Z,0.00
2022-11-24T01:57:58.461Z,0.00
2022-11-24T01:58:58.432Z,0.00
2022-11-24T01:59:58.478Z,0.00
2022-11-24T02:00:58.493Z,0.00
2022-11-24T02:01:58.475Z,0.00
2022-11-24T02:02:58.463Z,0.00
2022-11-24T02:03:58.393Z,0.00
2022-11-24T02:04:58.371Z,0.00
2022-11-24T02:05:58.380Z,0.00
2022-11-24T02:06:58.407Z,0.00
2022-11-24T02:07:58.364Z,0.00
2022-11-24T02:08:58.333Z,0.00
2022-11-24T02:09:58.335Z,0.00
2022-11-24T02:10:58.355Z,0.00
2022-11-24T02:11:58.321Z,0.00
2022-11-24T02:12:58.309Z,0.00
2022-11-24T02:13:58.286Z,0.00
2022-11-24T02:14:58.282Z,0.00
2022-11-24T02:15:58.330Z,0.00
2022-11-24T02:16:58.272Z,0.00
2022-11-24T02:17:58.251Z,0.00
2022-11-24T02:18:58.239Z,0.00
2022-11-24T02:19:58.298Z,0.00
2022-11-24T02:20:58.209Z,0.00
2022-11-24T02:21:58.275Z,0.00
2022-11-24T02:22:58.261Z,0.00
2022-11-24T02:23:58.191Z,0.00
2022-11-24T02:24:58.209Z,0.00
2022-11-24T02:25:58.181Z,0.00
2022-11-24T02:26:58.189Z,0.00
2022-11-24T02:27:58.276Z,0.00
2022-11-24T02:28:58.163Z,0.00
2022-11-24T02:29:58.206Z,0.00
2022-11-24T02:30:58.207Z,0.00
2022-11-24T02:31:58.149Z,0.00
2022-11-24T02:32:58.128Z,0.00
2022-11-24T02:33:58.100Z,0.00
2022-11-24T02:34:58.096Z,0.00
2022-11-24T02:35:58.071Z,0.00
2022-11-24T02:36:58.164Z,0.00
2022-11-24T02:37:58.056Z,0.00
2022-11-24T02:38:58.047Z,0.00
2022-11-24T02:39:58.046Z,0.00
2022-11-24T02:40:58.051Z,0.00
2022-11-24T02:41:58.042Z,0.00
2022-11-24T02:42:58.017Z,0.00
2022-11-24T02:43:57.993Z,0.00
2022-11-24T02:44:58.009Z,0.00
2022-11-24T02:45:58.031Z,0.00
2022-11-24T02:46:57.966Z,0.00
2022-11-24T02:47:58.015Z,0.00
2022-11-24T02:48:57.981Z,0.00
2022-11-24T02:49:57.933Z,0.00
2022-11-24T02:50:57.941Z,0.00
2022-11-24T02:51:57.931Z,0.00
2022-11-24T02:52:57.983Z,0.00
2022-11-24T02:53:57.926Z,0.00
2022-11-24T02:54:57.922Z,0.00
2022-11-24T02:55:57.898Z,0.00
2022-11-24T02:56:57.868Z,0.00
2022-11-24T02:57:57.853Z,0.00
2022-11-24T02:58:57.890Z,0.00
2022-11-24T02:59:57.834Z,0.00
2022-11-24T03:00:57.872Z,0.00
2022-11-24T03:01:57.917Z,0.00
2022-11-24T03:02:57.857Z,0.00
2022-11-24T03:03:57.827Z,0.00
2022-11-24T03:04:57.793Z,0.00
2022-11-24T03:05:57.806Z,0.00
2022-11-24T03:06:57.800Z,0.00
2022-11-24T03:07:57.769Z,0.00
2022-11-24T03:08:57.791Z,0.00
2022-11-24T03:09:57.734Z,0.00
2022-11-24T03:10:57.758Z,0.00
2022-11-24T03:11:57.760Z,0.00
2022-11-24T03:12:57.742Z,0.00
2022-11-24T03:13:57.717Z,0.00
2022-11-24T03:14:57.685Z,0.00
2022-11-24T03:15:57.709Z,0.00
2022-11-24T03:16:57.698Z,0.00
2022-11-24T03:17:57.656Z,0.00
2022-11-24T03:18:57.645Z,0.00
2022-11-24T03:20:01.518Z,0.00
2022-11-24T03:20:57.664Z,0.00
2022-11-24T03:21:57.610Z,0.00
2022-11-24T03:22:57.649Z,0.00
2022-11-24T03:23:57.620Z,0.00
2022-11-24T03:24:57.591Z,0.00
2022-11-24T03:25:57.576Z,0.00
2022-11-24T03:26:57.582Z,0.00
2022-11-24T03:27:57.651Z,0.00
2022-11-24T03:28:57.612Z,0.00
2022-11-24T03:29:57.578Z,0.00
2022-11-24T03:30:57.628Z,0.00
2022-11-24T03:31:57.515Z,0.00
2022-11-24T03:32:57.549Z,0.00
2022-11-24T03:33:57.543Z,0.00
2022-11-24T03:34:57.529Z,0.00
2022-11-24T03:35:57.484Z,0.00
2022-11-24T03:36:57.499Z,0.00
2022-11-24T03:37:57.474Z,0.00
2022-11-24T03:38:57.456Z,0.00
2022-11-24T03:39:57.473Z,0.00
2022-11-24T03:40:57.436Z,0.00
2022-11-24T03:41:57.459Z,0.00
2022-11-24T03:42:57.446Z,0.00
2022-11-24T03:43:57.449Z,0.00
2022-11-24T03:44:57.430Z,0.00
2022-11-24T03:45:57.406Z,0.00
2022-11-24T03:46:57.388Z,0.00
2022-11-24T03:47:57.366Z,0.00
2022-11-24T03:48:57.355Z,0.00
2022-11-24T03:49:57.384Z,0.00
2022-11-24T03:50:57.343Z,0.00
2022-11-24T03:51:57.413Z,0.00
2022-11-24T03:52:57.336Z,0.00
2022-11-24T03:53:57.313Z,0.00
2022-11-24T03:54:57.366Z,0.00
2022-11-24T03:55:57.337Z,0.00
2022-11-24T03:56:57.337Z,0.00
2022-11-24T03:57:57.269Z,0.00
2022-11-24T03:58:57.263Z,0.00
2022-11-24T03:59:57.252Z,0.00
2022-11-24T04:00:57.278Z,0.00
2022-11-24T04:01:57.336Z,0.00
2022-11-24T04:02:57.317Z,0.00
2022-11-24T04:03:57.207Z,0.00
2022-11-24T04:04:57.210Z,0.00
2022-11-24T04:05:57.200Z,0.00
2022-11-24T04:06:57.210Z,0.00
2022-11-24T04:07:57.206Z,0.00
2022-11-24T04:08:57.164Z,0.00
2022-11-24T04:09:57.175Z,0.00
2022-11-24T04:10:57.155Z,0.00
2022-11-24T04:11:57.148Z,0.00
2022-11-24T04:12:57.117Z,0.00
2022-11-24T04:13:57.118Z,0.00
2022-11-24T04:14:57.109Z,0.00
2022-11-24T04:15:57.196Z,0.00
2022-11-24T04:16:57.103Z,0.00
2022-11-24T04:17:57.076Z,0.00
2022-11-24T04:18:57.072Z,0.00
2022-11-24T04:19:57.049Z,0.00
2022-11-24T04:20:57.045Z,0.00
2022-11-24T04:21:57.044Z,0.00
2022-11-24T04:22:57.031Z,0.00
2022-11-24T04:23:57.027Z,0.00
2022-11-24T04:24:56.995Z,0.00
2022-11-24T04:25:57.034Z,0.00
2022-11-24T04:26:57.028Z,0.00
2022-11-24T04:27:56.982Z,0.00
2022-11-24T04:28:56.991Z,0.00
2022-11-24T04:29:56.967Z,0.00
2022-11-24T04:30:57.157Z,0.00
2022-11-24T04:31:56.928Z,0.00
2022-11-24T04:32:56.964Z,0.00
2022-11-24T04:33:56.917Z,0.00
2022-11-24T04:34:56.908Z,0.00
2022-11-24T04:35:56.933Z,0.00
2022-11-24T04:36:56.896Z,0.00
2022-11-24T04:37:56.866Z,0.00
2022-11-24T04:39:23.540Z,0.00
2022-11-24T04:39:56.857Z,0.00
2022-11-24T04:40:56.891Z,0.00
2022-11-24T04:41:56.881Z,0.00
2022-11-24T04:42:56.848Z,0.00
2022-11-24T04:43:56.832Z,0.00
2022-11-24T04:44:56.808Z,0.00
2022-11-24T04:45:56.814Z,0.00
2022-11-24T04:46:56.813Z,0.00
2022-11-24T04:47:56.773Z,0.00
2022-11-24T04:48:56.773Z,0.00
2022-11-24T04:49:56.745Z,0.00
2022-11-24T04:50:56.788Z,0.00
2022-11-24T04:51:56.747Z,0.00
2022-11-24T04:52:56.749Z,0.00
2022-11-24T04:53:56.729Z,0.00
2022-11-24T04:54:56.710Z,0.00
2022-11-24T04:55:56.696Z,0.00
2022-11-24T04:56:56.689Z,0.00
2022-11-24T04:57:56.696Z,0.00
2022-11-24T04:58:56.763Z,0.00
2022-11-24T04:59:56.686Z,0.00
2022-11-24T05:00:56.645Z,0.00
2022-11-24T05:01:56.702Z,0.00
2022-11-24T05:02:56.625Z,0.00
2022-11-24T05:03:56.676Z,0.00
2022-11-24T05:04:56.685Z,0.00
2022-11-24T05:05:56.596Z,0.00
2022-11-24T05:06:56.598Z,0.00
2022-11-24T05:07:56.660Z,0.00
2022-11-24T05:08:56.579Z,0.00
2022-11-24T05:09:59.513Z,0.00
2022-11-24T05:10:56.565Z,0.00
2022-11-24T05:11:56.543Z,0.00
2022-11-24T05:12:56.547Z,0.00
2022-11-24T05:13:56.535Z,0.00
2022-11-24T05:14:56.536Z,0.00
2022-11-24T05:15:56.619Z,0.00
2022-11-24T05:16:56.602Z,0.00
2022-11-24T05:17:56.503Z,0.00
2022-11-24T05:18:56.497Z,0.00
2022-11-24T05:19:56.451Z,0.00
2022-11-24T05:20:56.445Z,0.00
2022-11-24T05:21:56.496Z,0.00
2022-11-24T05:22:56.457Z,0.00
2022-11-24T05:23:56.412Z,0.00
2022-11-24T05:24:56.482Z,0.00
2022-11-24T05:25:56.471Z,0.00
2022-11-24T05:26:56.438Z,0.00
2022-11-24T05:27:56.394Z,0.00
2022-11-24T05:28:56.490Z,0.00
2022-11-24T05:29:56.385Z,0.00
2022-11-24T05:30:56.389Z,0.00
2022-11-24T05:31:56.382Z,0.00
2022-11-24T05:32:56.335Z,0.00
2022-11-24T05:33:56.425Z,0.00
2022-11-24T05:34:56.349Z,0.00
2022-11-24T05:35:56.355Z,0.00
2022-11-24T05:36:56.293Z,0.00
2022-11-24T05:37:56.345Z,0.00
2022-11-24T05:38:56.278Z,0.00
2022-11-24T05:39:56.309Z,0.00
2022-11-24T05:40:56.257Z,0.00
2022-11-24T05:41:56.261Z,0.00
2022-11-24T05:42:56.248Z,0.00
2022-11-24T05:43:56.236Z,0.00
2022-11-24T05:44:56.228Z,0.00
2022-11-24T05:45:56.213Z,0.00
2022-11-24T05:46:56.261Z,0.00
2022-11-24T05:47:56.189Z,0.00
2022-11-24T05:48:56.198Z,0.00
2022-11-24T05:49:56.172Z,0.00
2022-11-24T05:50:56.151Z,0.00
2022-11-24T05:51:56.176Z,0.00
2022-11-24T05:52:56.140Z,0.00
2022-11-24T05:53:56.176Z,0.00
2022-11-24T05:54:56.122Z,0.00
2022-11-24T05:55:56.103Z,0.00
2022-11-24T05:56:56.093Z,0.00
2022-11-24T05:57:56.088Z,0.00
2022-11-24T05:58:56.028Z,1.00
2022-11-24T05:59:56.093Z,0.00
2022-11-24T06:00:56.060Z,0.00
2022-11-24T06:01:56.233Z,0.00
2022-11-24T06:02:56.062Z,1.00
2022-11-24T06:03:56.025Z,0.00
2022-11-24T06:04:56.027Z,0.00
2022-11-24T06:05:56.173Z,0.00
2022-11-24T06:06:56.132Z,0.00
2022-11-24T06:07:56.208Z,0.00
2022-11-24T06:08:55.939Z,1.00
2022-11-24T06:09:56.042Z,0.00
2022-11-24T06:10:55.927Z,1.00
2022-11-24T06:11:55.892Z,1.00
2022-11-24T06:12:55.895Z,3.00
2022-11-24T06:13:55.924Z,5.00
2022-11-24T06:14:55.892Z,5.00
2022-11-24T06:15:55.874Z,2.00
2022-11-24T06:16:55.924Z,6.00
2022-11-24T06:17:55.897Z,5.00
2022-11-24T06:18:55.918Z,7.00
2022-11-24T06:19:55.810Z,7.00
2022-11-24T06:21:10.387Z,13.00
2022-11-24T06:21:55.792Z,15.00
2022-11-24T06:22:55.837Z,18.00
2022-11-24T06:23:55.836Z,23.00
2022-11-24T06:24:55.795Z,24.00
2022-11-24T06:25:55.776Z,28.00
2022-11-24T06:26:55.787Z,29.00
2022-11-24T06:27:55.732Z,35.00
2022-11-24T06:28:55.745Z,45.00
2022-11-24T06:29:55.731Z,51.00
2022-11-24T06:30:55.749Z,60.00
2022-11-24T06:31:55.741Z,63.00
2022-11-24T06:32:55.721Z,63.00
2022-11-24T06:33:55.738Z,67.00
2022-11-24T06:34:55.682Z,69.00
2022-11-24T06:35:55.668Z,84.00
2022-11-24T06:36:55.655Z,92.00
2022-11-24T06:37:55.704Z,98.00
2022-11-24T06:38:55.635Z,112.00
2022-11-24T06:39:55.621Z,143.00
2022-11-24T06:40:55.613Z,146.00
2022-11-24T06:41:55.617Z,142.00
2022-11-24T06:42:55.578Z,169.00
2022-11-24T06:43:55.567Z,206.00
2022-11-24T06:44:55.587Z,240.00
2022-11-24T06:45:55.636Z,259.00
2022-11-24T06:46:55.561Z,282.00
2022-11-24T06:47:55.581Z,308.00
2022-11-24T06:48:55.525Z,318.00
2022-11-24T06:49:55.506Z,379.00
2022-11-24T06:50:55.601Z,427.00
2022-11-24T06:51:55.495Z,446.00
2022-11-24T06:52:55.498Z,457.00
2022-11-24T06:53:55.517Z,472.00
2022-11-24T06:54:55.507Z,518.00
2022-11-24T06:55:55.462Z,575.00
2022-11-24T06:56:55.648Z,606.00
2022-11-24T06:57:55.487Z,648.00
2022-11-24T06:58:55.467Z,674.00
2022-11-24T06:59:55.442Z,729.00
2022-11-24T07:00:55.536Z,775.00
2022-11-24T07:01:55.442Z,821.00
2022-11-24T07:02:55.448Z,877.00
2022-11-24T07:03:55.398Z,909.00
2022-11-24T07:04:55.432Z,926.00
2022-11-24T07:05:55.378Z,972.00
2022-11-24T07:06:55.382Z,983.00
2022-11-24T07:07:55.374Z,954.00
2022-11-24T07:08:55.336Z,998.00
2022-11-24T07:09:55.331Z,1109.00
2022-11-24T07:10:55.302Z,1234.00
2022-11-24T07:11:55.312Z,1138.00
2022-11-24T07:12:55.333Z,1187.00
2022-11-24T07:13:59.867Z,1210.00
2022-11-24T07:14:55.299Z,1277.00
2022-11-24T07:15:55.274Z,1406.00
2022-11-24T07:16:55.261Z,1500.00
2022-11-24T07:17:55.238Z,1532.00
2022-11-24T07:18:55.253Z,1560.00
2022-11-24T07:19:55.224Z,1587.00
2022-11-24T07:20:55.235Z,1571.00
2022-11-24T07:21:55.290Z,1569.00
2022-11-24T07:22:55.189Z,1770.00
2022-11-24T07:23:55.187Z,1636.00
2022-11-24T07:24:55.160Z,1601.00
2022-11-24T07:25:55.172Z,1641.00
2022-11-24T07:26:55.178Z,1626.00
2022-11-24T07:27:55.139Z,1567.00
2022-11-24T07:28:55.140Z,1515.00
2022-11-24T07:29:55.157Z,1516.00
2022-11-24T07:30:55.102Z,1522.00
2022-11-24T07:31:55.179Z,1531.00
2022-11-24T07:32:55.109Z,1588.00
2022-11-24T07:33:55.133Z,1668.00
2022-11-24T07:34:55.125Z,1685.00
2022-11-24T07:35:55.072Z,1697.00
2022-11-24T07:36:55.048Z,1664.00
2022-11-24T07:37:55.656Z,1609.00
2022-11-24T07:38:55.031Z,1527.00
2022-11-24T07:39:55.016Z,1561.00
2022-11-24T07:40:55.127Z,1636.00
2022-11-24T07:41:55.024Z,1605.00
2022-11-24T07:42:54.984Z,1511.00
2022-11-24T07:43:55.009Z,1441.00
2022-11-24T07:44:54.971Z,1519.00
2022-11-24T07:45:55.032Z,1552.00
2022-11-24T07:46:54.983Z,1559.00
2022-11-24T07:47:54.954Z,1711.00
2022-11-24T07:48:54.918Z,1688.00
2022-11-24T07:49:54.926Z,1625.00
2022-11-24T07:50:56.285Z,1692.00
2022-11-24T07:51:54.965Z,1778.00
2022-11-24T07:52:54.901Z,1856.00
2022-11-24T07:53:54.889Z,1924.00
2022-11-24T07:54:54.890Z,1973.00
2022-11-24T07:55:54.900Z,1966.00
2022-11-24T07:56:54.861Z,1952.00
2022-11-24T07:57:54.852Z,1946.00
2022-11-24T07:58:54.846Z,2026.00
2022-11-24T07:59:54.846Z,2141.00
2022-11-24T08:00:54.803Z,2226.00
2022-11-24T08:01:54.856Z,2363.00
2022-11-24T08:02:54.819Z,2538.00
2022-11-24T08:03:54.871Z,2579.00
2022-11-24T08:04:54.764Z,2507.00
2022-11-24T08:06:22.475Z,2464.00
2022-11-24T08:06:54.867Z,2348.00
2022-11-24T08:07:54.820Z,2180.00
2022-11-24T08:08:54.724Z,1999.00
2022-11-24T08:09:54.726Z,1993.00
2022-11-24T08:10:54.746Z,1996.00
2022-11-24T08:11:54.712Z,1942.00
2022-11-24T08:12:54.746Z,1842.00
2022-11-24T08:13:54.677Z,1849.00
2022-11-24T08:14:54.680Z,1924.00
2022-11-24T08:15:54.685Z,2090.00
2022-11-24T08:16:54.736Z,2094.00
2022-11-24T08:17:54.677Z,2038.00
2022-11-24T08:18:54.658Z,2105.00
2022-11-24T08:19:54.644Z,2136.00
2022-11-24T08:20:54.679Z,2019.00
2022-11-24T08:21:54.652Z,1950.00
2022-11-24T08:22:54.628Z,1955.00
2022-11-24T08:23:54.601Z,1979.00
2022-11-24T08:24:54.581Z,2174.00
2022-11-24T08:25:56.998Z,2559.00
2022-11-24T08:26:54.596Z,2678.00
2022-11-24T08:27:54.562Z,2759.00
2022-11-24T08:28:54.555Z,3054.00
2022-11-24T08:29:54.516Z,3161.00
2022-11-24T08:30:54.513Z,3471.00
2022-11-24T08:31:55.111Z,3633.00
2022-11-24T08:32:54.544Z,3543.00
2022-11-24T08:33:54.493Z,3587.00
2022-11-24T08:34:59.686Z,3530.00
2022-11-24T08:35:54.463Z,3300.00
2022-11-24T08:36:54.466Z,3147.00
2022-11-24T08:37:54.435Z,3285.00
2022-11-24T08:38:54.474Z,3220.00
2022-11-24T08:39:54.448Z,3262.00
2022-11-24T08:40:54.429Z,3324.00
2022-11-24T08:41:54.479Z,3399.00
2022-11-24T08:42:54.408Z,3649.00
2022-11-24T08:43:54.387Z,3699.00
2022-11-24T08:44:59.043Z,3725.00
2022-11-24T08:45:54.413Z,3794.00
2022-11-24T08:46:54.455Z,3710.00
2022-11-24T08:47:54.352Z,3647.00
2022-11-24T08:48:54.361Z,3573.00
2022-11-24T08:49:54.327Z,3552.00
2022-11-24T08:50:54.320Z,3516.00
2022-11-24T08:51:54.304Z,3176.00
2022-11-24T08:52:54.311Z,3428.00
2022-11-24T08:53:54.309Z,3012.00
2022-11-24T08:54:54.296Z,3212.00
2022-11-24T08:55:54.261Z,3535.00
2022-11-24T08:56:54.254Z,3577.00
2022-11-24T08:57:54.289Z,4245.00
2022-11-24T08:58:54.283Z,3923.00
2022-11-24T08:59:54.255Z,3010.00
2022-11-24T09:00:54.286Z,3334.00
2022-11-24T09:01:54.305Z,3790.00
2022-11-24T09:02:54.198Z,3708.00
2022-11-24T09:03:54.246Z,3851.00
2022-11-24T09:04:54.257Z,4479.00
2022-11-24T09:05:54.154Z,3611.00
2022-11-24T09:06:54.161Z,3987.00
2022-11-24T09:07:54.213Z,3472.00
2022-11-24T09:08:54.146Z,3004.00
2022-11-24T09:09:54.124Z,3081.00
2022-11-24T09:10:54.137Z,2790.00
2022-11-24T09:11:54.135Z,2380.00
2022-11-24T09:12:54.114Z,2784.00
2022-11-24T09:13:54.080Z,1916.00
2022-11-24T09:14:54.071Z,1444.00
2022-11-24T09:15:54.111Z,2203.00
2022-11-24T09:16:54.114Z,1999.00
2022-11-24T09:17:54.136Z,2079.00
2022-11-24T09:18:54.027Z,1994.00
2022-11-24T09:19:54.038Z,2207.00
2022-11-24T09:20:54.058Z,1952.00
2022-11-24T09:21:54.083Z,1986.00
2022-11-24T09:22:54.003Z,2128.00
2022-11-24T09:23:54.006Z,1664.00
2022-11-24T09:24:53.973Z,2094.00
2022-11-24T09:25:53.992Z,1925.00
2022-11-24T09:26:53.961Z,3128.00
2022-11-24T09:27:53.975Z,3843.00
2022-11-24T09:28:53.977Z,3856.00
2022-11-24T09:29:53.930Z,3898.00
2022-11-24T09:30:53.973Z,3652.00
2022-11-24T09:31:53.915Z,4088.00
2022-11-24T09:32:53.942Z,4049.00
2022-11-24T09:33:53.933Z,3606.00
2022-11-24T09:34:53.886Z,3021.00
2022-11-24T09:35:53.964Z,3003.00
2022-11-24T09:36:53.877Z,3556.00
2022-11-24T09:37:53.861Z,3538.00
2022-11-24T09:38:53.879Z,3527.00
2022-11-24T09:39:53.832Z,3652.00
2022-11-24T09:40:55.051Z,3722.00
2022-11-24T09:41:53.822Z,3736.00
2022-11-24T09:42:53.934Z,3698.00
2022-11-24T09:43:53.818Z,3980.00
2022-11-24T09:44:53.795Z,4578.00
2022-11-24T09:46:09.122Z,5178.00
2022-11-24T09:46:53.803Z,5561.00
2022-11-24T09:47:53.809Z,5859.00
2022-11-24T09:48:53.740Z,6372.00
2022-11-24T09:49:53.753Z,7036.00
2022-11-24T09:50:53.750Z,7032.00
2022-11-24T09:51:53.702Z,7131.00
2022-11-24T09:52:53.698Z,7005.00
2022-11-24T09:53:53.708Z,6775.00
2022-11-24T09:54:53.697Z,6879.00
2022-11-24T09:55:53.684Z,6121.00
2022-11-24T09:56:53.651Z,5696.00
2022-11-24T09:57:53.656Z,5408.00
2022-11-24T09:58:53.667Z,5272.00
2022-11-24T09:59:53.621Z,5518.00
2022-11-24T10:00:53.609Z,5800.00
2022-11-24T10:01:53.698Z,5580.00
2022-11-24T10:02:53.617Z,6473.00
2022-11-24T10:03:53.603Z,7206.00
2022-11-24T10:04:53.653Z,9976.00
2022-11-24T10:05:53.613Z,11109.00
2022-11-24T10:06:53.570Z,23078.00
2022-11-24T10:07:53.637Z,13525.00
2022-11-24T10:08:53.656Z,23371.00
2022-11-24T10:09:53.534Z,27961.00
2022-11-24T10:10:53.556Z,25505.00
2022-11-24T10:11:53.503Z,17978.00
2022-11-24T10:12:53.486Z,12854.00
2022-11-24T10:13:53.507Z,13308.00
2022-11-24T10:14:53.467Z,15799.00
2022-11-24T10:15:53.567Z,17697.00
2022-11-24T10:16:53.456Z,21214.00
2022-11-24T10:17:53.442Z,15919.00
2022-11-24T10:18:53.442Z,11284.00
2022-11-24T10:19:53.425Z,7090.00
2022-11-24T10:20:53.409Z,7051.00
2022-11-24T10:21:53.413Z,6297.00
2022-11-24T10:22:53.389Z,4718.00
2022-11-24T10:23:53.435Z,14188.00
2022-11-24T10:24:53.443Z,6983.00
2022-11-24T10:25:53.372Z,8172.00
2022-11-24T10:26:53.347Z,13190.00
2022-11-24T10:27:53.434Z,13614.00
2022-11-24T10:28:53.332Z,16958.00
2022-11-24T10:29:53.342Z,8840.00
2022-11-24T10:30:53.341Z,6622.00
2022-11-24T10:31:53.309Z,5213.00
2022-11-24T10:32:53.307Z,16777.00
2022-11-24T10:33:53.293Z,10490.00
2022-11-24T10:34:53.290Z,11200.00
2022-11-24T10:35:53.285Z,10663.00
2022-11-24T10:36:53.358Z,12048.00
2022-11-24T10:37:53.243Z,9561.00
2022-11-24T10:38:53.223Z,3374.00
2022-11-24T10:39:58.565Z,17450.00
2022-11-24T10:40:57.705Z,11592.00
2022-11-24T10:41:53.201Z,13043.00
2022-11-24T10:42:53.215Z,9867.00
2022-11-24T10:43:53.182Z,8895.00
2022-11-24T10:44:53.187Z,8355.00
2022-11-24T10:45:53.219Z,6215.00
2022-11-24T10:46:53.263Z,6094.00
2022-11-24T10:47:53.137Z,5860.00
2022-11-24T10:48:53.160Z,5768.00
2022-11-24T10:49:53.130Z,5342.00
2022-11-24T10:50:53.116Z,5805.00
2022-11-24T10:51:53.100Z,6405.00
2022-11-24T10:52:53.087Z,6863.00
2022-11-24T10:53:53.086Z,7449.00
2022-11-24T10:54:53.092Z,7370.00
2022-11-24T10:55:53.088Z,7759.00
2022-11-24T10:56:53.055Z,8064.00
2022-11-24T10:57:53.076Z,8190.00
2022-11-24T10:58:53.045Z,9152.00
2022-11-24T10:59:53.020Z,9332.00
2022-11-24T11:00:53.002Z,9028.00
2022-11-24T11:01:53.226Z,8942.00
2022-11-24T11:02:53.033Z,9217.00
2022-11-24T11:03:52.999Z,9981.00
2022-11-24T11:04:52.998Z,8657.00
2022-11-24T11:05:52.955Z,7217.00
2022-11-24T11:06:52.961Z,8891.00
2022-11-24T11:07:53.020Z,9713.00
2022-11-24T11:08:52.957Z,9015.00
2022-11-24T11:09:53.018Z,6883.00
2022-11-24T11:10:52.969Z,6512.00
2022-11-24T11:11:53.013Z,7030.00
2022-11-24T11:12:52.926Z,5880.00
2022-11-24T11:13:55.711Z,5995.00
2022-11-24T11:14:53.049Z,8680.00
2022-11-24T11:15:52.981Z,8743.00
2022-11-24T11:16:52.913Z,6520.00
2022-11-24T11:17:52.913Z,4085.00
2022-11-24T11:18:52.883Z,3551.00
2022-11-24T11:19:58.634Z,4052.00
2022-11-24T11:20:52.906Z,4765.00
2022-11-24T11:21:52.846Z,5315.00
2022-11-24T11:22:52.827Z,4782.00
2022-11-24T11:23:52.849Z,3881.00
2022-11-24T11:24:52.800Z,3691.00
2022-11-24T11:25:52.775Z,4172.00
2022-11-24T11:26:52.788Z,4080.00
2022-11-24T11:27:52.811Z,3297.00
2022-11-24T11:28:52.832Z,3723.00
2022-11-24T11:34:10.681Z,3944.00
2022-11-24T11:34:52.705Z,3373.00
2022-11-24T11:35:52.738Z,3781.00
2022-11-24T11:36:52.696Z,4962.00
2022-11-24T11:37:52.696Z,6294.00
2022-11-24T11:38:52.662Z,6781.00
2022-11-24T11:39:52.671Z,5897.00
2022-11-24T11:40:52.656Z,4949.00
2022-11-24T11:41:52.633Z,6232.00
2022-11-24T11:43:08.049Z,6807.00
2022-11-24T11:43:52.646Z,6047.00
2022-11-24T11:44:52.595Z,5763.00
2022-11-24T11:45:52.686Z,7218.00
2022-11-24T11:46:52.661Z,9580.00
2022-11-24T11:47:52.585Z,11582.00
2022-11-24T11:48:52.591Z,13412.00
2022-11-24T11:49:52.636Z,9935.00
2022-11-24T11:51:21.741Z,6608.00
2022-11-24T11:51:52.548Z,5084.00
2022-11-24T11:52:52.518Z,5449.00
2022-11-24T11:53:52.672Z,5882.00
2022-11-24T11:54:52.528Z,5639.00
2022-11-24T11:55:52.522Z,5345.00
2022-11-24T11:56:52.475Z,5150.00
2022-11-24T11:57:52.483Z,4963.00
2022-11-24T11:58:52.458Z,6002.00
2022-11-24T11:59:52.414Z,7298.00
2022-11-24T12:00:52.407Z,6151.00
2022-11-24T12:01:52.412Z,4729.00
2022-11-24T12:02:53.942Z,5797.00
2022-11-24T12:03:52.485Z,6811.00
2022-11-24T12:04:52.433Z,5400.00
2022-11-24T12:05:52.346Z,4744.00
2022-11-24T12:06:52.391Z,4841.00
2022-11-24T12:07:52.413Z,4602.00
2022-11-24T12:09:18.642Z,3501.00
2022-11-24T12:09:52.341Z,3625.00
2022-11-24T12:10:52.300Z,5083.00
2022-11-24T12:11:52.282Z,6179.00
2022-11-24T12:12:52.357Z,7610.00
2022-11-24T12:13:52.273Z,7104.00
2022-11-24T12:14:52.303Z,5610.00
2022-11-24T12:15:52.284Z,4276.00
2022-11-24T12:16:52.242Z,4503.00
2022-11-24T12:17:52.308Z,4310.00
2022-11-24T12:18:59.538Z,3758.00
2022-11-24T12:19:52.235Z,3237.00
2022-11-24T12:20:52.199Z,2652.00
2022-11-24T12:21:52.277Z,3113.00
2022-11-24T12:22:52.203Z,4093.00
2022-11-24T12:23:52.211Z,6189.00
2022-11-24T12:24:52.190Z,5674.00
2022-11-24T12:25:52.174Z,4906.00
2022-11-24T12:26:52.193Z,4507.00
2022-11-24T12:27:52.134Z,4381.00
2022-11-24T12:28:52.206Z,4067.00
2022-11-24T12:29:52.146Z,3944.00
2022-11-24T12:30:52.183Z,3500.00
2022-11-24T12:31:52.136Z,2225.00
2022-11-24T12:32:52.102Z,16681.00
2022-11-24T12:33:55.357Z,10587.00
2022-11-24T12:34:52.085Z,5789.00
2022-11-24T12:35:52.078Z,5094.00
2022-11-24T12:36:52.069Z,7397.00
2022-11-24T12:37:52.026Z,6825.00
2022-11-24T12:38:52.045Z,5330.00
2022-11-24T12:39:52.013Z,4195.00
2022-11-24T12:40:58.048Z,6068.00
2022-11-24T12:41:52.005Z,6781.00
2022-11-24T12:42:51.981Z,5042.00
2022-11-24T12:43:51.989Z,4886.00
2022-11-24T12:44:51.950Z,4887.00
2022-11-24T12:45:51.990Z,5895.00